Time;durP1;ratioP1;P1;durP2;ratioP2;P2;SDS_P1;SDS_P2;PMS_P1;PMS_P2;Temp;Humidity;BMP_temperature;BMP_pressure;BME280_temperature;BME280_humidity;BME280_pressure;Samples;Min_cycle;Max_cycle;Signal;HPM_P1;HPM_P2
2022/01/25 00:15:03;;;;;;;6.18;2.97;;;5.70;79.40;;;;;;5050667;28;20057;-67
2022/01/25 00:24:46;;;;;;;6.22;3.00;;;5.70;79.70;;;;;;5025085;28;20049;-69
2022/01/25 00:27:36;;;;;;;6.60;3.00;;;5.70;79.80;;;;;;5031663;28;20126;-68
2022/01/25 00:30:22;;;;;;;6.75;2.80;;;5.70;79.80;;;;;;5044076;28;20163;-68
2022/01/25 00:32:49;;;;;;;4.88;2.30;;;5.70;79.70;;;;;;5044396;28;20242;-67
2022/01/25 00:35:17;;;;;;;6.68;2.97;;;5.70;79.60;;;;;;5049465;28;20560;-69
2022/01/25 00:37:44;;;;;;;5.30;2.60;;;5.70;79.70;;;;;;5047944;28;20109;-69
2022/01/25 00:40:11;;;;;;;6.28;2.70;;;5.70;79.80;;;;;;5046161;28;20070;-69
2022/01/25 00:42:39;;;;;;;6.60;2.25;;;5.70;79.80;;;;;;5030453;28;20060;-68
2022/01/25 00:45:08;;;;;;;6.13;2.70;;;5.70;79.80;;;;;;5052608;28;21536;-69
2022/01/25 00:47:35;;;;;;;6.78;2.88;;;5.70;79.90;;;;;;5049254;28;20056;-69
2022/01/25 00:50:02;;;;;;;4.90;2.40;;;5.70;79.90;;;;;;5049953;28;20129;-70
2022/01/25 00:55:12;;;;;;;4.82;2.50;;;5.60;80.00;;;;;;5048485;28;20110;-68
2022/01/25 00:57:39;;;;;;;7.80;3.17;;;5.60;80.00;;;;;;5024185;28;20140;-68
2022/01/25 01:00:09;;;;;;;4.78;2.58;;;5.60;80.10;;;;;;5022814;28;20044;-68
2022/01/25 01:02:36;;;;;;;5.32;3.08;;;5.60;80.10;;;;;;5023794;28;20334;-68
2022/01/25 01:05:04;;;;;;;4.75;2.47;;;5.60;80.20;;;;;;5023889;28;20312;-69
2022/01/25 01:07:33;;;;;;;5.65;2.38;;;5.60;80.30;;;;;;5025115;28;20049;-68
2022/01/25 01:10:01;;;;;;;4.93;2.15;;;5.50;80.40;;;;;;5029208;28;20136;-68
2022/01/25 01:12:57;;;;;;;5.63;2.47;;;5.60;80.40;;;;;;5029806;28;20069;-67
2022/01/25 01:15:28;;;;;;;6.22;2.45;;;5.50;80.40;;;;;;5027860;28;20134;-71
2022/01/25 01:29:13;;;;;;;4.82;2.03;;;5.40;80.60;;;;;;5048231;28;20070;-69
2022/01/25 01:31:55;;;;;;;4.47;2.03;;;5.40;80.50;;;;;;5049848;28;20055;-69
2022/01/25 01:35:07;;;;;;;5.45;2.40;;;5.40;80.50;;;;;;5045499;28;20573;-69
2022/01/25 01:45:57;;;;;;;4.03;1.95;;;5.40;80.50;;;;;;5030374;28;20053;-69
2022/01/25 01:48:30;;;;;;;5.60;2.30;;;5.30;80.60;;;;;;5029916;28;20056;-68
2022/01/25 01:51:04;;;;;;;5.15;1.80;;;5.30;80.50;;;;;;5031394;28;20783;-69
2022/01/25 01:53:32;;;;;;;4.07;1.73;;;5.30;80.50;;;;;;5028306;28;20103;-68
2022/01/25 01:56:01;;;;;;;5.28;2.17;;;5.20;80.50;;;;;;5049815;28;20053;-68
2022/01/25 01:58:28;;;;;;;4.25;1.90;;;5.20;80.50;;;;;;5030409;28;20233;-69
2022/01/25 02:00:56;;;;;;;8.43;2.60;;;5.20;80.50;;;;;;5023316;28;20049;-68
2022/01/25 02:03:30;;;;;;;2.93;1.44;;;5.20;80.40;;;;;;3388291;28;10022297;-69
2022/01/25 02:05:57;;;;;;;4.55;2.03;;;5.10;80.30;;;;;;2078093;28;10002185;-67
2022/01/25 02:08:24;;;;;;;4.45;2.35;;;5.20;80.30;;;;;;5031777;28;20045;-67
2022/01/25 02:10:51;;;;;;;6.55;2.00;;;5.10;80.20;;;;;;5030382;28;20060;-69
2022/01/25 02:13:19;;;;;;;6.65;2.17;;;5.10;80.20;;;;;;5029031;28;20060;-66
2022/01/25 02:15:48;;;;;;;4.88;2.05;;;5.10;80.10;;;;;;5029068;28;20053;-68
2022/01/25 02:23:47;;;;;;;3.58;1.92;;;5.10;80.00;;;;;;5030550;28;20049;-68
2022/01/25 02:26:15;;;;;;;3.30;1.95;;;5.00;79.90;;;;;;5032363;28;20573;-67
2022/01/25 02:28:45;;;;;;;6.35;2.25;;;5.00;79.90;;;;;;5030775;28;20049;-68
2022/01/25 02:31:14;;;;;;;4.70;2.20;;;5.00;79.90;;;;;;5040523;28;20581;-68
2022/01/25 02:33:42;;;;;;;4.57;2.10;;;5.00;79.80;;;;;;5043064;28;20044;-69
2022/01/25 02:36:12;;;;;;;4.38;1.90;;;5.00;79.80;;;;;;5046595;28;20048;-70
2022/01/25 02:38:40;;;;;;;3.58;1.90;;;5.00;79.80;;;;;;5046671;28;20059;-69
2022/01/25 02:41:07;;;;;;;3.85;2.03;;;4.90;79.70;;;;;;5047845;28;20379;-67
2022/01/25 02:43:35;;;;;;;4.18;1.92;;;4.90;79.70;;;;;;5025117;28;21203;-69
2022/01/25 02:46:21;;;;;;;5.00;2.70;;;4.90;79.60;;;;;;5047294;28;20036;-69
2022/01/25 02:48:53;;;;;;;5.55;1.90;;;4.90;79.60;;;;;;5051416;28;20048;-68
2022/01/25 02:51:23;;;;;;;6.90;2.42;;;4.90;79.70;;;;;;5031973;28;20045;-70
2022/01/25 02:53:50;;;;;;;5.03;2.17;;;4.80;79.80;;;;;;5052062;28;20052;-68
2022/01/25 02:56:18;;;;;;;7.05;2.88;;;4.80;79.80;;;;;;5050695;28;20059;-69
2022/01/25 02:58:45;;;;;;;5.53;2.30;;;4.80;79.80;;;;;;5051192;28;20121;-68
2022/01/25 03:01:12;;;;;;;4.90;2.28;;;4.80;79.80;;;;;;5048815;28;21601;-68
2022/01/25 03:03:39;;;;;;;5.05;2.58;;;4.80;79.70;;;;;;5045371;28;20052;-68
2022/01/25 03:06:07;;;;;;;7.00;2.53;;;4.80;79.70;;;;;;5045622;28;20048;-67
2022/01/25 03:08:35;;;;;;;4.50;1.75;;;4.80;79.80;;;;;;5024367;28;20739;-68
2022/01/25 03:11:02;;;;;;;5.20;2.17;;;4.70;79.80;;;;;;5025999;28;20402;-68
2022/01/25 03:13:33;;;;;;;5.05;2.13;;;4.70;79.80;;;;;;5050473;28;20517;-68
2022/01/25 03:16:04;;;;;;;4.22;2.60;;;4.70;79.80;;;;;;5052938;28;20570;-68
2022/01/25 03:18:46;;;;;;;4.65;2.15;;;4.70;79.80;;;;;;5052840;28;20052;-68
2022/01/25 03:24:03;;;;;;;4.28;1.58;;;4.70;79.70;;;;;;5049195;28;20139;-69
2022/01/25 03:26:30;;;;;;;6.28;2.42;;;4.70;79.70;;;;;;5051342;28;20053;-69
2022/01/25 03:28:57;;;;;;;4.95;2.58;;;4.70;79.70;;;;;;5053550;28;20056;-69
2022/01/25 03:31:25;;;;;;;4.05;2.03;;;4.70;79.80;;;;;;5048754;28;20059;-68
2022/01/25 03:33:52;;;;;;;6.25;2.05;;;4.60;79.80;;;;;;5043901;28;20048;-68
2022/01/25 03:36:19;;;;;;;3.35;1.92;;;4.60;79.80;;;;;;5052375;28;20504;-69
2022/01/25 03:38:47;;;;;;;3.88;2.17;;;4.70;79.80;;;;;;5053120;28;20048;-68
2022/01/25 03:41:17;;;;;;;3.67;1.80;;;4.60;79.80;;;;;;5052553;28;20509;-70
2022/01/25 03:43:51;;;;;;;6.35;2.28;;;4.70;79.90;;;;;;5044695;28;20048;-69
2022/01/25 03:46:23;;;;;;;4.78;1.90;;;4.60;79.90;;;;;;5052831;28;20125;-69
2022/01/25 03:51:35;;;;;;;4.47;2.20;;;4.60;79.90;;;;;;5045459;28;20175;-69
2022/01/25 03:54:02;;;;;;;5.72;2.58;;;4.70;79.80;;;;;;5048377;28;20646;-68
2022/01/25 03:56:31;;;;;;;6.47;1.95;;;4.70;79.90;;;;;;5048645;28;20040;-69
2022/01/25 03:58:57;;;;;;;4.03;1.98;;;4.70;79.90;;;;;;5051791;28;20045;-69
2022/01/25 04:01:25;;;;;;;5.00;2.10;;;4.70;79.90;;;;;;3523343;28;10020750;-68
2022/01/25 04:03:58;;;;;;;5.78;2.13;;;4.60;80.00;;;;;;1739601;28;10002092;-69
2022/01/25 04:06:29;;;;;;;4.90;2.17;;;4.60;80.00;;;;;;5048726;28;20158;-69
2022/01/25 04:08:56;;;;;;;6.32;2.40;;;4.60;80.00;;;;;;5050557;28;20047;-68
2022/01/25 04:11:23;;;;;;;4.90;2.58;;;4.60;80.10;;;;;;5050602;28;20607;-70
2022/01/25 04:13:56;;;;;;;6.82;2.30;;;4.60;80.20;;;;;;5050567;28;20127;-68
2022/01/25 04:16:28;;;;;;;5.78;2.83;;;4.60;80.20;;;;;;5019306;28;20048;-68
2022/01/25 04:19:02;;;;;;;5.03;2.53;;;4.60;80.20;;;;;;5048556;28;20052;-70
2022/01/25 04:24:42;;;;;;;5.80;2.95;;;4.60;80.30;;;;;;5049909;28;20919;-68
2022/01/25 04:27:20;;;;;;;5.25;2.42;;;4.60;80.30;;;;;;5043907;28;20113;-68
2022/01/25 04:29:49;;;;;;;4.75;2.42;;;4.60;80.30;;;;;;5050595;28;20052;-69
2022/01/25 04:32:16;;;;;;;5.65;2.85;;;4.60;80.30;;;;;;5029703;28;20593;-69
2022/01/25 04:34:46;;;;;;;5.10;2.30;;;4.60;80.40;;;;;;5030592;28;20555;-68
2022/01/25 04:51:20;;;;;;;4.90;2.40;;;4.60;80.70;;;;;;5003834;28;20061;-69
2022/01/25 04:53:54;;;;;;;5.95;2.58;;;4.60;80.70;;;;;;5030915;28;20588;-69
2022/01/25 04:56:27;;;;;;;8.75;3.70;;;4.50;80.70;;;;;;5030566;28;20049;-67
2022/01/25 04:59:01;;;;;;;5.00;2.72;;;4.50;80.80;;;;;;5032601;28;20068;-68
2022/01/25 05:01:29;;;;;;;7.28;3.47;;;4.50;80.70;;;;;;5029342;28;20053;-69
2022/01/25 05:04:02;;;;;;;8.20;3.42;;;4.50;80.70;;;;;;5029809;28;20063;-67
2022/01/25 05:06:30;;;;;;;7.05;3.75;;;4.50;80.70;;;;;;5027723;28;20076;-69
2022/01/25 05:09:07;;;;;;;7.63;2.83;;;4.50;80.70;;;;;;5032094;28;20056;-68
2022/01/25 05:11:37;;;;;;;4.57;2.33;;;4.50;80.70;;;;;;5031149;28;20041;-69
2022/01/25 05:16:58;;;;;;;5.30;2.95;;;4.40;80.60;;;;;;5025743;28;20495;-68
2022/01/25 05:22:12;;;;;;;;;;;4.40;80.70;;;;;;5004726;28;20060;-68
2022/01/25 05:24:41;;;;;;;6.35;3.05;;;4.40;80.70;;;;;;5017929;28;20182;-69
2022/01/25 05:27:09;;;;;;;8.65;2.55;;;4.40;80.70;;;;;;5020456;28;20098;-69
2022/01/25 05:29:36;;;;;;;6.55;3.20;;;4.40;80.90;;;;;;5027665;28;20060;-69
2022/01/25 05:32:05;;;;;;;6.13;3.15;;;4.40;80.90;;;;;;5043674;28;20040;-68
2022/01/25 05:34:32;;;;;;;5.15;2.95;;;4.40;80.90;;;;;;5026720;28;20049;-70
2022/01/25 05:37:00;;;;;;;9.10;3.22;;;4.40;80.90;;;;;;5021418;28;20059;-68
2022/01/25 05:39:31;;;;;;;8.35;3.58;;;4.40;80.90;;;;;;5028472;28;20045;-68
2022/01/25 05:42:15;;;;;;;;;;;4.40;81.00;;;;;;5024811;28;20076;-69
2022/01/25 05:44:43;;;;;;;6.28;3.05;;;4.40;80.90;;;;;;5054032;28;20069;-69
2022/01/25 05:47:14;;;;;;;6.90;3.85;;;4.40;81.00;;;;;;5053425;28;20152;-69
2022/01/25 05:49:43;;;;;;;7.13;3.35;;;4.40;81.10;;;;;;5053190;28;20412;-69
2022/01/25 05:52:11;;;;;;;8.95;3.95;;;4.40;81.10;;;;;;5052506;28;20067;-69
2022/01/25 05:54:38;;;;;;;8.35;3.40;;;4.40;81.10;;;;;;5031819;28;20048;-69
2022/01/25 05:57:06;;;;;;;10.38;4.43;;;4.50;81.00;;;;;;5049047;28;20713;-68
2022/01/25 05:59:33;;;;;;;7.78;3.65;;;4.40;81.10;;;;;;5052107;28;20056;-69
2022/01/25 06:02:07;;;;;;;8.05;3.00;;;4.50;81.20;;;;;;3227683;28;10022238;-69
2022/01/25 06:04:36;;;;;;;8.10;3.88;;;4.40;81.10;;;;;;2945841;28;10002659;-69
2022/01/25 06:07:03;;;;;;;8.25;4.10;;;4.40;81.10;;;;;;5029738;28;20346;-69
2022/01/25 06:09:30;;;;;;;6.38;3.10;;;4.40;81.30;;;;;;5025637;28;20619;-69
2022/01/25 06:11:57;;;;;;;8.88;3.53;;;4.40;81.40;;;;;;5025808;28;20130;-69
2022/01/25 06:14:24;;;;;;;7.30;3.95;;;4.40;81.30;;;;;;5023841;28;20435;-68
2022/01/25 06:16:51;;;;;;;7.97;3.60;;;4.50;81.30;;;;;;5028690;28;20056;-70
2022/01/25 06:19:18;;;;;;;7.10;3.65;;;4.50;81.40;;;;;;5032243;28;20049;-69
2022/01/25 06:21:46;;;;;;;6.80;3.20;;;4.50;81.30;;;;;;5031711;28;20053;-68
2022/01/25 06:24:13;;;;;;;7.38;3.40;;;4.50;81.30;;;;;;5034885;28;20049;-69
2022/01/25 06:26:40;;;;;;;8.85;3.75;;;4.50;81.30;;;;;;5035878;28;20049;-69
2022/01/25 06:29:07;;;;;;;8.07;3.88;;;4.50;81.30;;;;;;5036312;28;20191;-69
2022/01/25 06:31:34;;;;;;;9.50;4.32;;;4.50;81.30;;;;;;5049520;28;20639;-69
2022/01/25 06:34:01;;;;;;;10.25;4.18;;;4.50;81.30;;;;;;5056621;28;20066;-69
2022/01/25 06:36:28;;;;;;;8.38;4.18;;;4.50;81.30;;;;;;5030857;28;20049;-67
2022/01/25 06:38:56;;;;;;;8.35;4.28;;;4.50;81.30;;;;;;5036971;28;20560;-68
2022/01/25 06:41:23;;;;;;;11.65;3.88;;;4.50;81.30;;;;;;5045966;28;20056;-68
2022/01/25 06:43:50;;;;;;;9.02;4.80;;;4.50;81.40;;;;;;5054495;28;20304;-69
2022/01/25 06:46:17;;;;;;;8.10;3.58;;;4.50;81.40;;;;;;5046787;28;20045;-69
2022/01/25 06:48:44;;;;;;;7.78;4.25;;;4.50;81.40;;;;;;5046557;28;20055;-68
2022/01/25 06:51:11;;;;;;;7.90;3.72;;;4.50;81.40;;;;;;5054152;28;20048;-68
2022/01/25 06:53:38;;;;;;;8.15;4.65;;;4.50;81.40;;;;;;5052937;28;22183;-68
2022/01/25 06:56:06;;;;;;;9.00;4.32;;;4.50;81.30;;;;;;5054856;28;21518;-69
2022/01/25 06:58:34;;;;;;;9.07;4.38;;;4.50;81.30;;;;;;5053568;28;20047;-69
2022/01/25 07:01:01;;;;;;;8.32;4.15;;;4.50;81.40;;;;;;5051229;28;20052;-69
2022/01/25 07:03:28;;;;;;;9.57;4.47;;;4.50;81.30;;;;;;5052078;28;20048;-68
2022/01/25 07:05:55;;;;;;;9.52;4.15;;;4.50;81.30;;;;;;5054110;28;20131;-68
2022/01/25 07:08:22;;;;;;;8.95;4.05;;;4.50;81.30;;;;;;5054131;28;20106;-68
2022/01/25 07:10:49;;;;;;;10.32;3.83;;;4.50;81.30;;;;;;5051670;28;20049;-68
2022/01/25 07:13:17;;;;;;;10.30;4.75;;;4.50;81.40;;;;;;5050247;28;20055;-69
2022/01/25 07:15:44;;;;;;;6.45;3.63;;;4.50;81.50;;;;;;5051829;28;20078;-68
2022/01/25 07:18:11;;;;;;;11.65;5.18;;;4.50;81.50;;;;;;5036658;28;20056;-69
2022/01/25 07:20:38;;;;;;;10.15;3.92;;;4.50;81.60;;;;;;5042220;28;20166;-69
2022/01/25 07:23:05;;;;;;;8.15;4.15;;;4.50;81.50;;;;;;5040543;28;20049;-69
2022/01/25 07:25:32;;;;;;;9.05;3.85;;;4.60;81.50;;;;;;5053257;28;20292;-69
2022/01/25 07:28:00;;;;;;;7.53;3.83;;;4.50;81.40;;;;;;5052527;28;20378;-69
2022/01/25 07:30:28;;;;;;;8.32;3.42;;;4.60;81.50;;;;;;5052295;28;20088;-68
2022/01/25 07:32:55;;;;;;;11.57;4.10;;;4.60;81.50;;;;;;5042968;28;20179;-69
2022/01/25 07:35:22;;;;;;;8.32;3.70;;;4.60;81.50;;;;;;5025439;28;20056;-69
2022/01/25 07:37:49;;;;;;;10.40;4.20;;;4.60;81.50;;;;;;5030397;28;20613;-68
2022/01/25 07:40:17;;;;;;;11.60;4.72;;;4.60;81.60;;;;;;5022902;28;20045;-68
2022/01/25 07:42:46;;;;;;;8.50;3.83;;;4.60;81.50;;;;;;5027111;28;20590;-70
2022/01/25 07:45:14;;;;;;;6.90;3.17;;;4.60;81.60;;;;;;5025464;28;20453;-68
2022/01/25 07:47:42;;;;;;;8.90;3.17;;;4.60;81.60;;;;;;5045795;28;20119;-69
2022/01/25 07:50:10;;;;;;;7.75;3.22;;;4.60;81.60;;;;;;5044742;28;20156;-69
2022/01/25 07:52:38;;;;;;;8.30;3.53;;;4.60;81.60;;;;;;5043042;28;20445;-69
2022/01/25 07:55:06;;;;;;;9.80;2.95;;;4.60;81.60;;;;;;5045516;28;20059;-69
2022/01/25 07:57:33;;;;;;;8.38;4.13;;;4.60;81.60;;;;;;5045190;28;20052;-68
2022/01/25 08:00:02;;;;;;;6.95;3.95;;;4.60;81.70;;;;;;3576793;28;10024383;-68
2022/01/25 08:02:44;;;;;;;10.18;3.35;;;4.70;81.60;;;;;;3471515;28;10002233;-67
2022/01/25 08:05:13;;;;;;;11.05;3.67;;;4.70;81.70;;;;;;5046651;28;21617;-68
2022/01/25 08:07:40;;;;;;;7.68;3.45;;;4.70;81.60;;;;;;5038008;28;20048;-68
2022/01/25 08:10:08;;;;;;;10.32;4.47;;;4.70;81.50;;;;;;5044575;28;20055;-67
2022/01/25 08:12:35;;;;;;;9.18;4.28;;;4.70;81.60;;;;;;5042211;28;20053;-69
2022/01/25 08:15:03;;;;;;;7.45;3.42;;;4.70;81.50;;;;;;5024047;28;20106;-69
2022/01/25 08:17:31;;;;;;;8.57;3.80;;;4.80;81.50;;;;;;5026938;28;20052;-68
2022/01/25 08:19:59;;;;;;;9.73;4.55;;;4.70;81.50;;;;;;5025100;28;20520;-69
2022/01/25 08:22:26;;;;;;;8.93;3.40;;;4.80;81.40;;;;;;5027772;28;20059;-68
2022/01/25 08:24:54;;;;;;;9.48;4.25;;;4.80;81.40;;;;;;5041114;28;20037;-68
2022/01/25 08:27:23;;;;;;;9.23;3.85;;;4.80;81.30;;;;;;5025637;28;20045;-68
2022/01/25 08:29:50;;;;;;;7.55;3.80;;;4.80;81.30;;;;;;5024511;28;20052;-69
2022/01/25 08:32:17;;;;;;;9.07;4.15;;;4.80;81.30;;;;;;5046860;28;20049;-69
2022/01/25 08:34:46;;;;;;;6.53;3.00;;;4.80;81.40;;;;;;5027698;28;20139;-69
2022/01/25 08:37:14;;;;;;;8.70;4.15;;;4.90;81.40;;;;;;5045815;28;20070;-67
2022/01/25 08:39:42;;;;;;;8.80;4.00;;;4.80;81.30;;;;;;5048409;28;20048;-69
2022/01/25 08:42:10;;;;;;;9.43;3.92;;;4.90;81.20;;;;;;5045585;28;20056;-69
2022/01/25 08:44:37;;;;;;;10.13;4.30;;;4.90;81.20;;;;;;5045574;28;20512;-69
2022/01/25 08:47:06;;;;;;;13.93;5.13;;;4.90;81.10;;;;;;5050093;28;20398;-69
2022/01/25 08:49:34;;;;;;;10.18;4.72;;;4.90;81.20;;;;;;5045129;28;20246;-68
2022/01/25 08:52:01;;;;;;;16.08;6.55;;;4.90;81.10;;;;;;5043875;28;20056;-67
2022/01/25 08:54:30;;;;;;;19.85;7.28;;;4.90;81.20;;;;;;5046463;28;20191;-67
2022/01/25 08:56:57;;;;;;;16.67;7.15;;;4.90;81.20;;;;;;5052971;28;20048;-68
2022/01/25 08:59:24;;;;;;;17.52;6.78;;;5.00;81.20;;;;;;5054047;28;20057;-68
2022/01/25 09:01:51;;;;;;;16.90;6.65;;;5.00;81.10;;;;;;5051703;28;20067;-67
2022/01/25 09:04:18;;;;;;;16.30;5.95;;;4.90;81.10;;;;;;5036515;28;20265;-67
2022/01/25 09:06:45;;;;;;;9.30;4.97;;;4.90;81.10;;;;;;5042940;28;20095;-68
2022/01/25 09:09:12;;;;;;;14.30;5.45;;;5.00;81.10;;;;;;5047235;28;20054;-67
2022/01/25 09:11:42;;;;;;;12.82;5.05;;;5.00;81.00;;;;;;5046895;28;20561;-69
2022/01/25 09:14:09;;;;;;;13.77;6.00;;;5.00;81.00;;;;;;5049014;28;20061;-68
2022/01/25 09:16:37;;;;;;;14.43;6.20;;;4.90;81.10;;;;;;5047405;28;20680;-66
2022/01/25 09:19:05;;;;;;;13.40;5.72;;;4.90;81.10;;;;;;5047362;28;20048;-67
2022/01/25 09:21:32;;;;;;;8.82;4.22;;;5.00;81.20;;;;;;5048091;28;20052;-68
2022/01/25 09:23:59;;;;;;;11.73;4.65;;;5.00;81.10;;;;;;5046745;28;20094;-68
2022/01/25 09:26:26;;;;;;;9.27;4.75;;;5.00;81.20;;;;;;5048286;28;20056;-66
2022/01/25 09:28:57;;;;;;;10.77;4.90;;;5.00;81.20;;;;;;5047638;28;20048;-66
2022/01/25 09:31:24;;;;;;;10.38;4.53;;;5.00;81.10;;;;;;5046984;28;20053;-69
2022/01/25 09:33:51;;;;;;;10.10;4.65;;;5.00;81.20;;;;;;5047892;28;20899;-67
2022/01/25 09:36:18;;;;;;;11.30;5.80;;;5.00;81.10;;;;;;5046088;28;20101;-67
2022/01/25 09:38:45;;;;;;;10.68;6.03;;;5.00;81.20;;;;;;5046874;28;20107;-66
2022/01/25 09:41:14;;;;;;;12.35;6.15;;;5.00;81.10;;;;;;5047371;28;20068;-67
2022/01/25 09:43:41;;;;;;;10.63;5.53;;;5.00;81.10;;;;;;5048682;28;20363;-67
2022/01/25 09:46:09;;;;;;;12.15;5.38;;;5.00;81.10;;;;;;5048889;28;20056;-67
2022/01/25 09:48:36;;;;;;;11.02;5.78;;;5.00;81.00;;;;;;5048156;28;20052;-67
2022/01/25 09:51:03;;;;;;;13.85;6.38;;;5.10;81.00;;;;;;5047646;28;20049;-67
2022/01/25 09:53:33;;;;;;;11.38;5.20;;;5.10;80.90;;;;;;5049847;28;20055;-68
2022/01/25 09:56:15;;;;;;;6.54;3.10;;;5.10;80.90;;;;;;3511102;28;10021629;-66
2022/01/25 09:58:42;;;;;;;9.20;4.25;;;5.10;80.80;;;;;;2957349;28;10001818;-67
2022/01/25 10:01:11;;;;;;;10.90;5.25;;;5.10;80.80;;;;;;5049801;28;20060;-67
2022/01/25 10:03:41;;;;;;;10.23;4.43;;;5.10;80.80;;;;;;5051727;28;20760;-67
2022/01/25 10:06:14;;;;;;;10.47;4.77;;;5.10;80.80;;;;;;5053418;28;20052;-67
2022/01/25 10:08:41;;;;;;;10.43;4.80;;;5.10;80.70;;;;;;5054420;28;20052;-67
2022/01/25 10:11:11;;;;;;;9.43;4.80;;;5.20;80.70;;;;;;5050304;28;20059;-66
2022/01/25 10:13:39;;;;;;;10.35;5.07;;;5.10;80.60;;;;;;5054814;28;20072;-68
2022/01/25 10:16:08;;;;;;;9.70;4.85;;;5.20;80.60;;;;;;5055623;28;20052;-67
2022/01/25 10:18:42;;;;;;;11.50;5.18;;;5.20;80.60;;;;;;5047268;28;20052;-67
2022/01/25 10:21:18;;;;;;;11.35;4.97;;;5.20;80.60;;;;;;5049845;28;20494;-66
2022/01/25 10:24:17;;;;;;;12.57;5.95;;;5.10;80.50;;;;;;5049325;28;20779;-68
2022/01/25 10:26:47;;;;;;;10.05;4.65;;;5.20;80.40;;;;;;4984058;28;20167;-67
2022/01/25 10:29:17;;;;;;;10.40;5.05;;;5.20;80.40;;;;;;5033747;28;20088;-68
2022/01/25 10:31:47;;;;;;;11.15;4.75;;;5.20;80.30;;;;;;5027305;28;20049;-68
2022/01/25 10:34:23;;;;;;;11.18;5.63;;;5.20;80.30;;;;;;5043488;28;21580;-67
2022/01/25 10:36:51;;;;;;;11.18;4.88;;;5.20;80.30;;;;;;5030401;28;20055;-67
2022/01/25 10:39:22;;;;;;;11.35;4.72;;;5.30;80.20;;;;;;5034201;28;20060;-67
2022/01/25 10:41:49;;;;;;;9.98;4.32;;;5.30;80.10;;;;;;5032867;28;20049;-67
2022/01/25 10:44:16;;;;;;;10.73;4.72;;;5.30;80.00;;;;;;5034549;28;20056;-68
2022/01/25 10:46:43;;;;;;;9.50;4.45;;;5.30;79.80;;;;;;5030396;28;20259;-67
2022/01/25 10:49:13;;;;;;;10.57;4.10;;;5.30;79.90;;;;;;5024957;28;20479;-68
2022/01/25 10:51:44;;;;;;;12.48;4.28;;;5.30;79.90;;;;;;5027318;28;20057;-67
2022/01/25 10:54:15;;;;;;;7.72;3.58;;;5.30;79.90;;;;;;5027317;28;20138;-69
2022/01/25 10:56:43;;;;;;;;;;;5.30;79.90;;;;;;5025068;28;20582;-68
2022/01/25 10:59:15;;;;;;;10.23;3.45;;;5.30;79.80;;;;;;5027480;28;19930;-68
2022/01/25 11:01:48;;;;;;;10.13;4.57;;;5.30;79.70;;;;;;5023985;28;20045;-67
2022/01/25 11:04:17;;;;;;;10.02;4.57;;;5.30;79.80;;;;;;5027040;28;20971;-67
2022/01/25 11:06:46;;;;;;;10.95;4.25;;;5.40;79.60;;;;;;5022753;28;20534;-68
2022/01/25 11:09:16;;;;;;;11.68;4.55;;;5.40;79.60;;;;;;5030449;28;20139;-70
2022/01/25 11:11:48;;;;;;;11.73;4.85;;;5.40;79.50;;;;;;5029976;28;20317;-67
2022/01/25 11:17:01;;;;;;;10.35;4.75;;;5.40;79.50;;;;;;5030646;28;21097;-69
2022/01/25 11:19:28;;;;;;;11.93;5.10;;;5.40;79.50;;;;;;5031209;28;20053;-67
2022/01/25 11:21:59;;;;;;;12.20;5.32;;;5.50;79.50;;;;;;5029251;28;20142;-67
2022/01/25 11:24:29;;;;;;;10.52;5.35;;;5.40;79.40;;;;;;5033158;28;20056;-69
2022/01/25 11:26:57;;;;;;;13.80;5.28;;;5.50;79.40;;;;;;5028865;28;20068;-66
2022/01/25 11:29:25;;;;;;;9.30;4.68;;;5.50;79.30;;;;;;5027118;28;20053;-68
2022/01/25 11:31:56;;;;;;;9.30;4.55;;;5.50;79.30;;;;;;5027595;28;20049;-66
2022/01/25 11:34:27;;;;;;;12.40;5.57;;;5.50;79.30;;;;;;5028920;28;20339;-67
2022/01/25 11:36:56;;;;;;;10.02;4.72;;;5.50;79.20;;;;;;5027151;28;20079;-67
2022/01/25 11:39:26;;;;;;;9.27;4.57;;;5.50;79.20;;;;;;5022937;28;20044;-67
2022/01/25 11:42:02;;;;;;;11.05;4.43;;;5.50;79.20;;;;;;5013555;28;20929;-67
2022/01/25 11:44:31;;;;;;;10.75;4.70;;;5.50;79.20;;;;;;5026825;28;20136;-67
2022/01/25 11:47:06;;;;;;;10.18;4.78;;;5.60;79.10;;;;;;5028367;28;20049;-66
2022/01/25 11:49:33;;;;;;;11.93;4.47;;;5.60;79.10;;;;;;5027136;28;20049;-67
2022/01/25 11:52:11;;;;;;;10.25;5.28;;;5.50;79.00;;;;;;5028391;28;20505;-66
2022/01/25 11:54:40;;;;;;;10.00;5.13;;;5.50;78.80;;;;;;5008794;28;20049;-67
2022/01/25 11:57:12;;;;;;;10.95;5.72;;;5.50;78.80;;;;;;5028085;28;20056;-66
2022/01/25 11:59:43;;;;;;;13.13;5.00;;;5.60;78.90;;;;;;4626695;28;10000620;-68
2022/01/25 12:02:10;;;;;;;14.90;6.57;;;5.60;78.80;;;;;;689945;28;10001978;-66
2022/01/25 12:04:43;;;;;;;11.68;5.72;;;5.50;78.80;;;;;;5027140;28;20075;-67
2022/01/25 12:07:24;;;;;;;13.57;5.50;;;5.50;78.80;;;;;;5027144;28;20052;-66
2022/01/25 12:10:03;;;;;;;10.40;4.65;;;5.50;78.80;;;;;;5026306;28;21346;-68
2022/01/25 12:12:32;;;;;;;9.00;3.67;;;5.60;78.80;;;;;;5023834;28;20045;-66
2022/01/25 12:15:13;;;;;;;11.75;5.05;;;5.60;78.70;;;;;;5025439;28;20053;-67
2022/01/25 12:17:40;;;;;;;10.98;4.50;;;5.60;78.70;;;;;;5027196;28;20383;-67
2022/01/25 12:20:22;;;;;;;8.85;4.38;;;5.50;78.70;;;;;;5027213;28;20068;-68
2022/01/25 12:23:05;;;;;;;11.25;5.50;;;5.50;78.60;;;;;;5026457;28;20518;-68
2022/01/25 12:25:48;;;;;;;10.70;5.15;;;5.50;78.70;;;;;;5025703;28;20129;-68
2022/01/25 12:28:24;;;;;;;10.57;5.07;;;5.60;78.70;;;;;;5003291;28;20052;-67
2022/01/25 12:30:51;;;;;;;13.82;6.28;;;5.60;78.70;;;;;;4987132;28;20049;-68
2022/01/25 12:33:23;;;;;;;11.93;6.15;;;5.60;78.80;;;;;;5005187;28;20068;-68
2022/01/25 12:35:52;;;;;;;13.55;5.80;;;5.60;78.70;;;;;;5004361;28;20624;-67
2022/01/25 12:38:24;;;;;;;12.27;5.20;;;5.60;78.70;;;;;;5001525;28;20063;-68
2022/01/25 12:40:58;;;;;;;12.43;5.32;;;5.60;78.60;;;;;;5018173;28;20049;-68
2022/01/25 12:43:27;;;;;;;11.55;5.50;;;5.60;78.50;;;;;;5023730;28;20464;-69
2022/01/25 12:45:57;;;;;;;14.05;5.32;;;5.60;78.50;;;;;;5020529;28;20061;-67
2022/01/25 12:48:27;;;;;;;15.20;5.50;;;5.60;78.50;;;;;;5020552;28;20175;-68
2022/01/25 12:50:57;;;;;;;16.47;6.00;;;5.60;78.70;;;;;;5017042;28;20087;-68
2022/01/25 12:53:26;;;;;;;12.75;6.03;;;5.60;78.80;;;;;;5022936;28;20053;-67
2022/01/25 12:55:57;;;;;;;14.68;5.07;;;5.60;78.70;;;;;;5022643;28;20423;-68
2022/01/25 12:58:29;;;;;;;10.18;4.70;;;5.60;78.80;;;;;;5023922;28;20057;-68
2022/01/25 13:00:58;;;;;;;10.93;5.35;;;5.60;78.70;;;;;;5007467;28;20052;-68
2022/01/25 13:03:29;;;;;;;11.27;5.75;;;5.60;78.60;;;;;;5024385;28;20140;-68
2022/01/25 13:06:08;;;;;;;10.20;4.68;;;5.60;78.50;;;;;;5025570;28;20052;-67
2022/01/25 13:08:41;;;;;;;11.48;4.90;;;5.60;78.50;;;;;;5001907;28;20102;-67
2022/01/25 13:11:23;;;;;;;12.38;4.75;;;5.60;78.40;;;;;;5024038;28;20569;-68
2022/01/25 13:14:17;;;;;;;11.70;5.82;;;5.60;78.30;;;;;;5025256;28;20056;-66
2022/01/25 13:16:50;;;;;;;12.23;4.50;;;5.60;78.40;;;;;;5021693;28;20065;-68
2022/01/25 13:19:20;;;;;;;10.07;4.50;;;5.60;78.40;;;;;;5020940;28;20049;-67
2022/01/25 13:21:52;;;;;;;9.02;4.57;;;5.60;78.20;;;;;;5025072;28;20114;-67
2022/01/25 13:24:22;;;;;;;9.60;4.18;;;5.60;78.20;;;;;;5017350;28;20056;-67
2022/01/25 13:26:53;;;;;;;12.95;5.60;;;5.50;78.20;;;;;;5026489;28;20057;-67
2022/01/25 13:32:24;;;;;;;7.97;3.67;;;5.60;78.20;;;;;;4984867;28;19948;-67
2022/01/25 13:35:15;;;;;;;11.38;4.32;;;5.60;78.30;;;;;;5025120;28;20083;-67
2022/01/25 13:37:42;;;;;;;8.77;4.20;;;5.60;78.30;;;;;;5020209;28;20060;-68
2022/01/25 13:40:12;;;;;;;12.02;4.78;;;5.60;78.30;;;;;;5022616;28;20509;-67
2022/01/25 13:42:45;;;;;;;12.48;4.95;;;5.60;78.40;;;;;;5027591;28;20133;-68
2022/01/25 13:48:03;;;;;;;10.80;4.53;;;5.50;78.50;;;;;;5020307;28;20614;-66
2022/01/25 13:50:30;;;;;;;;;;;5.50;78.40;;;;;;5029342;28;20049;-68
2022/01/25 13:52:57;;;;;;;8.65;4.15;;;5.50;78.30;;;;;;5027590;28;19925;-68
2022/01/25 13:55:24;;;;;;;12.10;5.22;;;5.50;78.30;;;;;;5026666;28;20317;-67
2022/01/25 13:57:53;;;;;;;11.18;4.18;;;5.50;78.30;;;;;;5027681;28;20053;-67
2022/01/25 14:00:33;;;;;;;10.65;4.75;;;5.50;78.30;;;;;;3967120;28;10001984;-67
2022/01/25 14:03:00;;;;;;;13.45;5.38;;;5.50;78.40;;;;;;2078800;28;10002110;-66
2022/01/25 14:05:37;;;;;;;9.90;4.93;;;5.50;78.40;;;;;;5032681;28;20055;-67
2022/01/25 14:08:05;;;;;;;12.80;4.75;;;5.50;78.40;;;;;;5032698;28;21675;-68
2022/01/25 14:10:32;;;;;;;11.15;5.50;;;5.50;78.50;;;;;;5033514;28;20065;-68
2022/01/25 14:21:55;;;;;;;14.32;5.47;;;5.50;78.30;;;;;;5029991;28;20073;-66
2022/01/25 14:24:31;;;;;;;11.13;4.60;;;5.50;78.40;;;;;;5022047;28;20502;-67
2022/01/25 14:26:58;;;;;;;10.60;4.82;;;5.40;78.40;;;;;;5013113;28;20073;-67
2022/01/25 14:29:27;;;;;;;11.32;5.38;;;5.40;78.50;;;;;;5012177;28;20064;-68
2022/01/25 14:31:54;;;;;;;10.10;5.57;;;5.50;78.50;;;;;;5028116;28;20525;-68
2022/01/25 14:34:23;;;;;;;12.43;5.60;;;5.40;78.50;;;;;;5023447;28;20136;-68
2022/01/25 14:36:52;;;;;;;11.68;5.18;;;5.40;78.60;;;;;;5008980;28;20036;-68
2022/01/25 14:39:19;;;;;;;12.50;5.75;;;5.40;78.50;;;;;;5033731;28;20071;-68
2022/01/25 14:41:49;;;;;;;13.32;6.25;;;5.50;78.50;;;;;;5034028;28;20067;-66